sensor_id;sensor_type;location;lat;lon;timestamp;pressure;altitude;pressure_sealevel;temperature;humidity
21273;BME280;36726;52.328;10.552;2023-01-30T00:00:54;100369.72;;;3.34;93.49
21273;BME280;36726;52.328;10.552;2023-01-30T00:03:23;100358.41;;;3.35;93.68
21273;BME280;36726;52.328;10.552;2023-01-30T00:05:50;100359.34;;;3.37;93.27
21273;BME280;36726;52.328;10.552;2023-01-30T00:08:17;100361.13;;;3.38;93.48
21273;BME280;36726;52.328;10.552;2023-01-30T00:10:45;100345.44;;;3.38;93.45
21273;BME280;36726;52.328;10.552;2023-01-30T00:13:12;100334.22;;;3.40;93.69
21273;BME280;36726;52.328;10.552;2023-01-30T00:15:40;100316.91;;;3.44;93.79
21273;BME280;36726;52.328;10.552;2023-01-30T00:18:07;100319.63;;;3.47;93.99
21273;BME280;36726;52.328;10.552;2023-01-30T00:20:34;100301.41;;;3.48;93.50
21273;BME280;36726;52.328;10.552;2023-01-30T00:23:01;100289.28;;;3.50;93.62
21273;BME280;36726;52.328;10.552;2023-01-30T00:25:27;100284.97;;;3.52;93.54
21273;BME280;36726;52.328;10.552;2023-01-30T00:27:54;100260.69;;;3.55;93.42
21273;BME280;36726;52.328;10.552;2023-01-30T00:30:22;100263.34;;;3.56;93.36
21273;BME280;36726;52.328;10.552;2023-01-30T00:32:53;100266.84;;;3.57;93.72
21273;BME280;36726;52.328;10.552;2023-01-30T00:35:20;100266.00;;;3.58;93.29
21273;BME280;36726;52.328;10.552;2023-01-30T00:37:47;100263.47;;;3.59;93.62
21273;BME280;36726;52.328;10.552;2023-01-30T00:40:14;100270.50;;;3.62;93.54
21273;BME280;36726;52.328;10.552;2023-01-30T00:42:41;100271.47;;;3.64;93.84
21273;BME280;36726;52.328;10.552;2023-01-30T00:45:26;100273.13;;;3.62;94.35
21273;BME280;36726;52.328;10.552;2023-01-30T00:48:12;100274.06;;;3.64;94.46
21273;BME280;36726;52.328;10.552;2023-01-30T00:50:38;100269.84;;;3.67;93.83
21273;BME280;36726;52.328;10.552;2023-01-30T00:53:11;100271.59;;;3.68;93.77
21273;BME280;36726;52.328;10.552;2023-01-30T00:55:39;100254.25;;;3.70;94.38
21273;BME280;36726;52.328;10.552;2023-01-30T00:58:06;100263.03;;;3.72;94.01
21273;BME280;36726;52.328;10.552;2023-01-30T01:00:33;100256.19;;;3.76;94.26
21273;BME280;36726;52.328;10.552;2023-01-30T01:03:01;100242.28;;;3.77;94.04
21273;BME280;36726;52.328;10.552;2023-01-30T01:05:27;100226.59;;;3.77;94.14
21273;BME280;36726;52.328;10.552;2023-01-30T01:07:54;100223.13;;;3.78;94.43
21273;BME280;36726;52.328;10.552;2023-01-30T01:10:22;100220.47;;;3.76;95.27
21273;BME280;36726;52.328;10.552;2023-01-30T01:12:49;100207.28;;;3.73;96.15
21273;BME280;36726;52.328;10.552;2023-01-30T01:15:18;100202.78;;;3.69;97.01
21273;BME280;36726;52.328;10.552;2023-01-30T01:17:47;100203.56;;;3.67;97.52
21273;BME280;36726;52.328;10.552;2023-01-30T01:20:16;100214.88;;;3.66;98.21
21273;BME280;36726;52.328;10.552;2023-01-30T01:22:44;100206.97;;;3.64;98.94
21273;BME280;36726;52.328;10.552;2023-01-30T01:25:11;100208.69;;;3.64;98.84
21273;BME280;36726;52.328;10.552;2023-01-30T01:27:38;100201.81;;;3.66;98.58
21273;BME280;36726;52.328;10.552;2023-01-30T01:30:07;100189.72;;;3.69;98.74
21273;BME280;36726;52.328;10.552;2023-01-30T01:32:35;100175.00;;;3.73;98.29
21273;BME280;36726;52.328;10.552;2023-01-30T01:35:01;100182.13;;;3.77;98.39
21273;BME280;36726;52.328;10.552;2023-01-30T01:37:28;100172.63;;;3.79;98.48
21273;BME280;36726;52.328;10.552;2023-01-30T01:39:55;100166.47;;;3.78;99.34
21273;BME280;36726;52.328;10.552;2023-01-30T01:42:40;100156.03;;;3.78;99.59
21273;BME280;36726;52.328;10.552;2023-01-30T01:50:22;100132.53;;;3.80;99.66
21273;BME280;36726;52.328;10.552;2023-01-30T01:52:51;100129.19;;;3.84;99.57
21273;BME280;36726;52.328;10.552;2023-01-30T01:55:21;100119.69;;;3.87;100.00
21273;BME280;36726;52.328;10.552;2023-01-30T01:57:58;100102.16;;;3.85;100.00
21273;BME280;36726;52.328;10.552;2023-01-30T02:00:29;100092.63;;;3.87;100.00
21273;BME280;36726;52.328;10.552;2023-01-30T02:03:04;100087.53;;;3.90;100.00
21273;BME280;36726;52.328;10.552;2023-01-30T02:05:34;100080.66;;;3.93;100.00
21273;BME280;36726;52.328;10.552;2023-01-30T02:08:08;100072.84;;;3.95;100.00
21273;BME280;36726;52.328;10.552;2023-01-30T02:10:45;100061.53;;;3.96;100.00
21273;BME280;36726;52.328;10.552;2023-01-30T02:13:16;100067.66;;;3.96;100.00
21273;BME280;36726;52.328;10.552;2023-01-30T02:15:43;100058.09;;;3.97;100.00
21273;BME280;36726;52.328;10.552;2023-01-30T02:18:11;100065.94;;;3.97;100.00
21273;BME280;36726;52.328;10.552;2023-01-30T02:34:08;100032.00;;;4.00;100.00
21273;BME280;36726;52.328;10.552;2023-01-30T02:36:57;100030.25;;;3.99;100.00
21273;BME280;36726;52.328;10.552;2023-01-30T02:42:39;100039.00;;;4.01;100.00
21273;BME280;36726;52.328;10.552;2023-01-30T02:45:31;100039.97;;;4.04;100.00
21273;BME280;36726;52.328;10.552;2023-01-30T02:48:06;100033.97;;;4.07;100.00
21273;BME280;36726;52.328;10.552;2023-01-30T02:50:42;100025.34;;;4.09;100.00
21273;BME280;36726;52.328;10.552;2023-01-30T02:53:11;100005.38;;;4.13;100.00
21273;BME280;36726;52.328;10.552;2023-01-30T02:55:40;100019.41;;;4.15;100.00
21273;BME280;36726;52.328;10.552;2023-01-30T02:58:09;100020.28;;;4.17;100.00
21273;BME280;36726;52.328;10.552;2023-01-30T03:03:50;100003.81;;;4.19;100.00
21273;BME280;36726;52.328;10.552;2023-01-30T03:06:32;99980.28;;;4.21;100.00
21273;BME280;36726;52.328;10.552;2023-01-30T03:09:33;99978.59;;;4.23;100.00
21273;BME280;36726;52.328;10.552;2023-01-30T03:12:08;99980.47;;;4.27;100.00
21273;BME280;36726;52.328;10.552;2023-01-30T03:15:39;99988.38;;;4.29;100.00
21273;BME280;36726;52.328;10.552;2023-01-30T03:17:42;99975.31;;;4.30;100.00
21273;BME280;36726;52.328;10.552;2023-01-30T03:20:15;99971.03;;;4.34;100.00
21273;BME280;36726;52.328;10.552;2023-01-30T03:22:44;99972.03;;;4.37;100.00
21273;BME280;36726;52.328;10.552;2023-01-30T03:25:16;99973.88;;;4.41;100.00
21273;BME280;36726;52.328;10.552;2023-01-30T03:27:45;99964.38;;;4.45;100.00
21273;BME280;36726;52.328;10.552;2023-01-30T03:30:13;99953.16;;;4.49;100.00
21273;BME280;36726;52.328;10.552;2023-01-30T03:32:39;99962.88;;;4.53;100.00
21273;BME280;36726;52.328;10.552;2023-01-30T03:35:06;99949.81;;;4.54;100.00
21273;BME280;36726;52.328;10.552;2023-01-30T03:37:34;99943.78;;;4.57;100.00
21273;BME280;36726;52.328;10.552;2023-01-30T03:40:01;99932.50;;;4.61;100.00
21273;BME280;36726;52.328;10.552;2023-01-30T03:42:28;99935.16;;;4.62;100.00
21273;BME280;36726;52.328;10.552;2023-01-30T03:44:55;99915.97;;;4.62;100.00
21273;BME280;36726;52.328;10.552;2023-01-30T03:47:21;99914.31;;;4.65;100.00
21273;BME280;36726;52.328;10.552;2023-01-30T03:49:49;99918.69;;;4.66;100.00
21273;BME280;36726;52.328;10.552;2023-01-30T03:52:16;99914.31;;;4.65;100.00
21273;BME280;36726;52.328;10.552;2023-01-30T03:54:42;99908.97;;;4.62;100.00
21273;BME280;36726;52.328;10.552;2023-01-30T03:57:09;99906.22;;;4.56;100.00
21273;BME280;36726;52.328;10.552;2023-01-30T03:59:36;99900.00;;;4.51;100.00
21273;BME280;36726;52.328;10.552;2023-01-30T04:02:06;99916.47;;;4.47;100.00
21273;BME280;36726;52.328;10.552;2023-01-30T04:04:34;99900.66;;;4.44;100.00
21273;BME280;36726;52.328;10.552;2023-01-30T04:07:03;99909.28;;;4.40;100.00
21273;BME280;36726;52.328;10.552;2023-01-30T04:09:31;99907.50;;;4.39;100.00
21273;BME280;36726;52.328;10.552;2023-01-30T04:11:57;99897.03;;;4.39;100.00
21273;BME280;36726;52.328;10.552;2023-01-30T04:14:28;99900.53;;;4.40;100.00
21273;BME280;36726;52.328;10.552;2023-01-30T04:17:24;99888.34;;;4.40;100.00
21273;BME280;36726;52.328;10.552;2023-01-30T04:20:09;99885.69;;;4.39;100.00
21273;BME280;36726;52.328;10.552;2023-01-30T04:22:43;99883.06;;;4.39;100.00
21273;BME280;36726;52.328;10.552;2023-01-30T04:25:11;99877.78;;;4.37;100.00
21273;BME280;36726;52.328;10.552;2023-01-30T04:27:37;99873.41;;;4.36;100.00
21273;BME280;36726;52.328;10.552;2023-01-30T04:30:11;99873.38;;;4.35;100.00
21273;BME280;36726;52.328;10.552;2023-01-30T04:32:38;99876.00;;;4.36;100.00
21273;BME280;36726;52.328;10.552;2023-01-30T04:35:05;99869.00;;;4.35;100.00
21273;BME280;36726;52.328;10.552;2023-01-30T04:37:34;99866.44;;;4.37;100.00
21273;BME280;36726;52.328;10.552;2023-01-30T04:40:01;99862.06;;;4.37;100.00
21273;BME280;36726;52.328;10.552;2023-01-30T04:42:28;99870.84;;;4.39;100.00
21273;BME280;36726;52.328;10.552;2023-01-30T04:45:30;99863.84;;;4.38;100.00
21273;BME280;36726;52.328;10.552;2023-01-30T04:47:56;99857.78;;;4.41;100.00
21273;BME280;36726;52.328;10.552;2023-01-30T04:50:23;99860.47;;;4.42;100.00
21273;BME280;36726;52.328;10.552;2023-01-30T04:52:50;99862.22;;;4.43;100.00
21273;BME280;36726;52.328;10.552;2023-01-30T04:55:17;99850.06;;;4.45;100.00
21273;BME280;36726;52.328;10.552;2023-01-30T04:57:44;99839.59;;;4.45;100.00
21273;BME280;36726;52.328;10.552;2023-01-30T05:00:11;99832.66;;;4.47;100.00
21273;BME280;36726;52.328;10.552;2023-01-30T05:02:44;99824.78;;;4.46;100.00
21273;BME280;36726;52.328;10.552;2023-01-30T05:05:10;99827.44;;;4.47;100.00
21273;BME280;36726;52.328;10.552;2023-01-30T05:07:37;99816.97;;;4.47;100.00
21273;BME280;36726;52.328;10.552;2023-01-30T05:10:04;99801.28;;;4.49;100.00
21273;BME280;36726;52.328;10.552;2023-01-30T05:12:30;99796.97;;;4.51;100.00
21273;BME280;36726;52.328;10.552;2023-01-30T05:14:57;99804.84;;;4.52;100.00
21273;BME280;36726;52.328;10.552;2023-01-30T05:17:24;99801.34;;;4.52;100.00
21273;BME280;36726;52.328;10.552;2023-01-30T05:19:51;99796.09;;;4.52;100.00
21273;BME280;36726;52.328;10.552;2023-01-30T05:22:17;99791.78;;;4.54;100.00
21273;BME280;36726;52.328;10.552;2023-01-30T05:24:44;99794.41;;;4.54;100.00
21273;BME280;36726;52.328;10.552;2023-01-30T05:27:10;99786.56;;;4.54;100.00
21273;BME280;36726;52.328;10.552;2023-01-30T05:29:37;99778.72;;;4.55;100.00
21273;BME280;36726;52.328;10.552;2023-01-30T05:32:04;99768.25;;;4.55;100.00
21273;BME280;36726;52.328;10.552;2023-01-30T05:34:31;99780.53;;;4.56;100.00
21273;BME280;36726;52.328;10.552;2023-01-30T05:36:57;99767.44;;;4.56;100.00
21273;BME280;36726;52.328;10.552;2023-01-30T05:39:24;99757.00;;;4.58;100.00
21273;BME280;36726;52.328;10.552;2023-01-30T05:41:50;99779.69;;;4.59;100.00
21273;BME280;36726;52.328;10.552;2023-01-30T05:44:17;99777.13;;;4.60;100.00
21273;BME280;36726;52.328;10.552;2023-01-30T05:46:43;99771.91;;;4.60;100.00
21273;BME280;36726;52.328;10.552;2023-01-30T05:49:10;99761.47;;;4.63;100.00
21273;BME280;36726;52.328;10.552;2023-01-30T05:51:37;99770.28;;;4.65;100.00
21273;BME280;36726;52.328;10.552;2023-01-30T05:54:03;99780.81;;;4.68;100.00
21273;BME280;36726;52.328;10.552;2023-01-30T05:56:30;99774.72;;;4.69;100.00
21273;BME280;36726;52.328;10.552;2023-01-30T05:59:00;99773.00;;;4.71;100.00
21273;BME280;36726;52.328;10.552;2023-01-30T06:01:28;99789.66;;;4.73;100.00
21273;BME280;36726;52.328;10.552;2023-01-30T06:03:55;99770.47;;;4.74;100.00
21273;BME280;36726;52.328;10.552;2023-01-30T06:06:23;99773.16;;;4.77;100.00
21273;BME280;36726;52.328;10.552;2023-01-30T06:08:54;99769.72;;;4.78;100.00
21273;BME280;36726;52.328;10.552;2023-01-30T06:11:22;99766.25;;;4.81;100.00
21273;BME280;36726;52.328;10.552;2023-01-30T06:13:48;99768.06;;;4.83;100.00
21273;BME280;36726;52.328;10.552;2023-01-30T06:16:16;99756.72;;;4.84;100.00
21273;BME280;36726;52.328;10.552;2023-01-30T06:18:43;99760.25;;;4.86;100.00
21273;BME280;36726;52.328;10.552;2023-01-30T06:21:13;99752.44;;;4.88;100.00
21273;BME280;36726;52.328;10.552;2023-01-30T06:23:41;99770.81;;;4.89;100.00
21273;BME280;36726;52.328;10.552;2023-01-30T06:26:08;99756.88;;;4.90;100.00
21273;BME280;36726;52.328;10.552;2023-01-30T06:28:35;99760.41;;;4.92;100.00
21273;BME280;36726;52.328;10.552;2023-01-30T06:31:04;99754.31;;;4.93;100.00
21273;BME280;36726;52.328;10.552;2023-01-30T06:33:31;99742.09;;;4.94;100.00
21273;BME280;36726;52.328;10.552;2023-01-30T06:35:58;99756.91;;;4.92;100.00
21273;BME280;36726;52.328;10.552;2023-01-30T06:38:24;99752.53;;;4.91;100.00
21273;BME280;36726;52.328;10.552;2023-01-30T06:40:51;99761.22;;;4.90;100.00
21273;BME280;36726;52.328;10.552;2023-01-30T06:43:18;99765.69;;;4.94;100.00
21273;BME280;36726;52.328;10.552;2023-01-30T06:45:44;99764.81;;;4.95;100.00
21273;BME280;36726;52.328;10.552;2023-01-30T06:48:11;99777.97;;;4.96;100.00
21273;BME280;36726;52.328;10.552;2023-01-30T06:50:38;99777.91;;;4.93;100.00
21273;BME280;36726;52.328;10.552;2023-01-30T06:53:06;99776.13;;;4.92;100.00
21273;BME280;36726;52.328;10.552;2023-01-30T06:55:34;99774.28;;;4.88;100.00
21273;BME280;36726;52.328;10.552;2023-01-30T07:00:28;99775.31;;;4.95;100.00
21273;BME280;36726;52.328;10.552;2023-01-30T07:02:55;99774.56;;;5.02;100.00
21273;BME280;36726;52.328;10.552;2023-01-30T07:05:22;99790.47;;;5.09;100.00
21273;BME280;36726;52.328;10.552;2023-01-30T07:07:48;99795.88;;;5.15;100.00
21273;BME280;36726;52.328;10.552;2023-01-30T07:10:15;99806.34;;;5.15;100.00
21273;BME280;36726;52.328;10.552;2023-01-30T07:12:42;99807.22;;;5.14;100.00
21273;BME280;36726;52.328;10.552;2023-01-30T07:15:10;99809.91;;;5.17;100.00
21273;BME280;36726;52.328;10.552;2023-01-30T07:17:39;99800.25;;;5.16;100.00
21273;BME280;36726;52.328;10.552;2023-01-30T07:20:06;99803.72;;;5.15;100.00
21273;BME280;36726;52.328;10.552;2023-01-30T07:22:33;99817.72;;;5.16;100.00
21273;BME280;36726;52.328;10.552;2023-01-30T07:24:59;99830.00;;;5.18;100.00
21273;BME280;36726;52.328;10.552;2023-01-30T07:27:26;99825.88;;;5.29;100.00
21273;BME280;36726;52.328;10.552;2023-01-30T07:29:52;99831.31;;;5.39;100.00
21273;BME280;36726;52.328;10.552;2023-01-30T07:32:19;99840.16;;;5.44;100.00
21273;BME280;36726;52.328;10.552;2023-01-30T07:34:46;99830.56;;;5.44;100.00
21273;BME280;36726;52.328;10.552;2023-01-30T07:37:13;99833.38;;;5.52;100.00
21273;BME280;36726;52.328;10.552;2023-01-30T07:39:40;99823.88;;;5.60;100.00
21273;BME280;36726;52.328;10.552;2023-01-30T07:42:07;99833.69;;;5.67;100.00
21273;BME280;36726;52.328;10.552;2023-01-30T07:44:33;99827.72;;;5.74;100.00
21273;BME280;36726;52.328;10.552;2023-01-30T07:47:00;99827.75;;;5.77;100.00
21273;BME280;36726;52.328;10.552;2023-01-30T07:49:27;99832.25;;;5.82;100.00
21273;BME280;36726;52.328;10.552;2023-01-30T07:51:54;99842.84;;;5.87;100.00
21273;BME280;36726;52.328;10.552;2023-01-30T07:54:21;99828.94;;;5.91;100.00
21273;BME280;36726;52.328;10.552;2023-01-30T07:56:48;99832.78;;;6.08;100.00
21273;BME280;36726;52.328;10.552;2023-01-30T07:59:14;99831.13;;;6.13;100.00
21273;BME280;36726;52.328;10.552;2023-01-30T08:01:41;99825.88;;;6.13;100.00
21273;BME280;36726;52.328;10.552;2023-01-30T08:04:07;99833.78;;;6.14;99.91
21273;BME280;36726;52.328;10.552;2023-01-30T08:06:34;99837.16;;;6.07;99.01
21273;BME280;36726;52.328;10.552;2023-01-30T08:09:05;99832.63;;;6.00;99.51
21273;BME280;36726;52.328;10.552;2023-01-30T08:11:32;99833.28;;;5.90;98.20
21273;BME280;36726;52.328;10.552;2023-01-30T08:13:59;99841.09;;;5.86;96.49
21273;BME280;36726;52.328;10.552;2023-01-30T08:16:26;99841.84;;;5.82;96.09
21273;BME280;36726;52.328;10.552;2023-01-30T08:18:52;99844.47;;;5.82;93.93
21273;BME280;36726;52.328;10.552;2023-01-30T08:21:19;99836.75;;;5.86;94.50
21273;BME280;36726;52.328;10.552;2023-01-30T08:23:45;99853.50;;;5.94;93.24
21273;BME280;36726;52.328;10.552;2023-01-30T08:26:12;99848.41;;;6.02;92.35
21273;BME280;36726;52.328;10.552;2023-01-30T08:28:39;99845.00;;;6.06;92.23
21273;BME280;36726;52.328;10.552;2023-01-30T08:31:10;99842.44;;;6.10;92.58
21273;BME280;36726;52.328;10.552;2023-01-30T08:33:37;99862.69;;;6.16;93.42
21273;BME280;36726;52.328;10.552;2023-01-30T08:36:04;99848.75;;;6.20;93.94
21273;BME280;36726;52.328;10.552;2023-01-30T08:38:31;99856.72;;;6.24;94.29
21273;BME280;36726;52.328;10.552;2023-01-30T08:40:57;99865.56;;;6.29;94.17
21273;BME280;36726;52.328;10.552;2023-01-30T08:43:26;99868.28;;;6.34;94.29
21273;BME280;36726;52.328;10.552;2023-01-30T08:45:53;99872.69;;;6.37;93.11
21273;BME280;36726;52.328;10.552;2023-01-30T08:48:20;99878.88;;;6.39;92.76
21273;BME280;36726;52.328;10.552;2023-01-30T08:50:46;99870.09;;;6.38;90.17
21273;BME280;36726;52.328;10.552;2023-01-30T08:53:13;99855.16;;;6.36;89.08
21273;BME280;36726;52.328;10.552;2023-01-30T08:55:40;99853.44;;;6.38;89.97
21273;BME280;36726;52.328;10.552;2023-01-30T08:58:06;99847.38;;;6.40;88.95
21273;BME280;36726;52.328;10.552;2023-01-30T09:00:33;99856.22;;;6.45;88.47
21273;BME280;36726;52.328;10.552;2023-01-30T09:02:59;99858.88;;;6.47;87.13
21273;BME280;36726;52.328;10.552;2023-01-30T09:05:27;99865.91;;;6.48;86.75
21273;BME280;36726;52.328;10.552;2023-01-30T09:07:55;99850.22;;;6.52;87.02
21273;BME280;36726;52.328;10.552;2023-01-30T09:10:21;99854.63;;;6.53;86.67
21273;BME280;36726;52.328;10.552;2023-01-30T09:12:49;99863.47;;;6.60;86.53
21273;BME280;36726;52.328;10.552;2023-01-30T09:15:16;99870.53;;;6.62;87.80
21273;BME280;36726;52.328;10.552;2023-01-30T09:17:42;99864.31;;;6.57;87.33
21273;BME280;36726;52.328;10.552;2023-01-30T09:20:10;99855.53;;;6.55;86.91
21273;BME280;36726;52.328;10.552;2023-01-30T09:22:37;99868.88;;;6.67;86.39
21273;BME280;36726;52.328;10.552;2023-01-30T09:25:04;99866.38;;;6.73;85.42
21273;BME280;36726;52.328;10.552;2023-01-30T09:27:31;99884.00;;;6.80;84.71
21273;BME280;36726;52.328;10.552;2023-01-30T09:29:58;99861.28;;;6.84;83.96
21273;BME280;36726;52.328;10.552;2023-01-30T09:32:24;99863.13;;;6.89;84.23
21273;BME280;36726;52.328;10.552;2023-01-30T09:34:51;99865.78;;;6.91;83.16
21273;BME280;36726;52.328;10.552;2023-01-30T09:37:17;99867.59;;;6.95;83.67
21273;BME280;36726;52.328;10.552;2023-01-30T09:39:44;99843.97;;;6.98;83.10
21273;BME280;36726;52.328;10.552;2023-01-30T09:45:23;99864.25;;;7.06;83.29
21273;BME280;36726;52.328;10.552;2023-01-30T09:52:15;99848.59;;;7.12;81.91
21273;BME280;36726;52.328;10.552;2023-01-30T09:54:21;99866.88;;;7.06;80.19
21273;BME280;36726;52.328;10.552;2023-01-30T09:56:54;99851.88;;;6.99;80.42
21273;BME280;36726;52.328;10.552;2023-01-30T09:59:28;99843.06;;;6.97;81.21
21273;BME280;36726;52.328;10.552;2023-01-30T10:02:21;99845.88;;;7.08;80.62
21273;BME280;36726;52.328;10.552;2023-01-30T10:04:51;99846.78;;;7.10;80.89
21273;BME280;36726;52.328;10.552;2023-01-30T10:07:45;99838.06;;;7.12;81.30
21273;BME280;36726;52.328;10.552;2023-01-30T10:13:28;99846.75;;;7.08;80.20
21273;BME280;36726;52.328;10.552;2023-01-30T10:18:59;99843.28;;;7.09;80.89
21273;BME280;36726;52.328;10.552;2023-01-30T10:24:41;99846.75;;;7.08;80.10
21273;BME280;36726;52.328;10.552;2023-01-30T10:27:15;99838.16;;;7.18;81.00
21273;BME280;36726;52.328;10.552;2023-01-30T10:29:47;99842.47;;;7.15;80.68
21273;BME280;36726;52.328;10.552;2023-01-30T10:32:41;99846.13;;;7.24;79.53
21273;BME280;36726;52.328;10.552;2023-01-30T10:35:16;99826.00;;;7.26;78.17
21273;BME280;36726;52.328;10.552;2023-01-30T10:37:50;99842.66;;;7.27;79.04
21273;BME280;36726;52.328;10.552;2023-01-30T10:40:25;99828.69;;;7.31;77.98
21273;BME280;36726;52.328;10.552;2023-01-30T10:48:50;99834.13;;;7.43;76.21
21273;BME280;36726;52.328;10.552;2023-01-30T10:54:45;99820.16;;;7.47;76.32
21273;BME280;36726;52.328;10.552;2023-01-30T11:00:32;99815.00;;;7.58;74.95
21273;BME280;36726;52.328;10.552;2023-01-30T11:03:46;99827.34;;;7.62;73.58
21273;BME280;36726;52.328;10.552;2023-01-30T11:06:13;99814.34;;;7.74;73.70
21273;BME280;36726;52.328;10.552;2023-01-30T11:08:44;99813.38;;;7.67;73.76
21273;BME280;36726;52.328;10.552;2023-01-30T11:11:42;99810.09;;;7.88;73.35
21273;BME280;36726;52.328;10.552;2023-01-30T11:14:13;99793.69;;;8.10;72.31
21273;BME280;36726;52.328;10.552;2023-01-30T11:16:46;99793.78;;;8.19;72.19
21273;BME280;36726;52.328;10.552;2023-01-30T11:19:15;99789.31;;;8.10;72.76
21273;BME280;36726;52.328;10.552;2023-01-30T11:21:49;99802.41;;;8.07;72.33
21273;BME280;36726;52.328;10.552;2023-01-30T11:24:19;99789.13;;;7.95;71.63
21273;BME280;36726;52.328;10.552;2023-01-30T11:26:46;99773.16;;;7.82;72.88
21273;BME280;36726;52.328;10.552;2023-01-30T11:29:28;99777.28;;;7.59;72.55
21273;BME280;36726;52.328;10.552;2023-01-30T11:31:57;99768.28;;;7.38;80.18
21273;BME280;36726;52.328;10.552;2023-01-30T11:34:26;99820.47;;;7.08;87.03
21273;BME280;36726;52.328;10.552;2023-01-30T11:36:52;99798.81;;;6.68;99.04
21273;BME280;36726;52.328;10.552;2023-01-30T11:39:21;99809.56;;;6.30;100.00
21273;BME280;36726;52.328;10.552;2023-01-30T11:44:29;99781.44;;;5.79;100.00
21273;BME280;36726;52.328;10.552;2023-01-30T11:47:02;99788.56;;;5.83;100.00
21273;BME280;36726;52.328;10.552;2023-01-30T11:49:38;99782.09;;;5.67;100.00
21273;BME280;36726;52.328;10.552;2023-01-30T11:52:29;99791.44;;;5.55;100.00
21273;BME280;36726;52.328;10.552;2023-01-30T11:55:02;99787.06;;;5.54;100.00
21273;BME280;36726;52.328;10.552;2023-01-30T12:00:19;99785.38;;;5.57;100.00
21273;BME280;36726;52.328;10.552;2023-01-30T12:02:48;99790.50;;;5.51;100.00
21273;BME280;36726;52.328;10.552;2023-01-30T12:05:23;99779.06;;;5.48;100.00
21273;BME280;36726;52.328;10.552;2023-01-30T12:07:51;99782.53;;;5.45;100.00
21273;BME280;36726;52.328;10.552;2023-01-30T12:12:50;99756.16;;;5.38;100.00
21273;BME280;36726;52.328;10.552;2023-01-30T12:15:24;99760.47;;;5.36;100.00
21273;BME280;36726;52.328;10.552;2023-01-30T12:18:04;99758.69;;;5.35;100.00
21273;BME280;36726;52.328;10.552;2023-01-30T12:20:55;99742.94;;;5.33;100.00
21273;BME280;36726;52.328;10.552;2023-01-30T12:26:26;99739.31;;;5.26;100.00
21273;BME280;36726;52.328;10.552;2023-01-30T12:29:28;99748.91;;;5.26;100.00
21273;BME280;36726;52.328;10.552;2023-01-30T12:32:13;99743.63;;;5.24;100.00
21273;BME280;36726;52.328;10.552;2023-01-30T12:34:40;99740.16;;;5.25;100.00
21273;BME280;36726;52.328;10.552;2023-01-30T12:37:26;99734.91;;;5.25;100.00
21273;BME280;36726;52.328;10.552;2023-01-30T12:43:01;99746.25;;;5.24;100.00
21273;BME280;36726;52.328;10.552;2023-01-30T12:45:33;99758.50;;;5.25;100.00
21273;BME280;36726;52.328;10.552;2023-01-30T12:58:47;99794.78;;;5.88;100.00
21273;BME280;36726;52.328;10.552;2023-01-30T13:01:46;99765.34;;;6.05;100.00
21273;BME280;36726;52.328;10.552;2023-01-30T13:04:42;99780.50;;;6.20;100.00
21273;BME280;36726;52.328;10.552;2023-01-30T13:07:41;99758.56;;;6.16;100.00
21273;BME280;36726;52.328;10.552;2023-01-30T13:10:34;99776.81;;;6.10;100.00
21273;BME280;36726;52.328;10.552;2023-01-30T13:13:11;99779.97;;;5.91;100.00
21273;BME280;36726;52.328;10.552;2023-01-30T13:16:00;99791.97;;;5.80;100.00
21273;BME280;36726;52.328;10.552;2023-01-30T13:18:52;99781.22;;;5.67;100.00
21273;BME280;36726;52.328;10.552;2023-01-30T13:21:25;99780.41;;;5.71;100.00
21273;BME280;36726;52.328;10.552;2023-01-30T13:26:30;99803.63;;;5.93;100.00
21273;BME280;36726;52.328;10.552;2023-01-30T13:29:30;99786.13;;;5.93;100.00
21273;BME280;36726;52.328;10.552;2023-01-30T13:32:00;99799.44;;;6.04;100.00
21273;BME280;36726;52.328;10.552;2023-01-30T13:34:38;99798.50;;;6.00;100.00
21273;BME280;36726;52.328;10.552;2023-01-30T13:37:17;99797.41;;;5.88;100.00
21273;BME280;36726;52.328;10.552;2023-01-30T13:39:47;99805.84;;;5.75;100.00
21273;BME280;36726;52.328;10.552;2023-01-30T13:42:30;99832.69;;;5.62;100.00
21273;BME280;36726;52.328;10.552;2023-01-30T13:44:59;99799.44;;;5.59;100.00
21273;BME280;36726;52.328;10.552;2023-01-30T13:50:22;99809.03;;;5.59;100.00
21273;BME280;36726;52.328;10.552;2023-01-30T13:52:58;99818.72;;;5.61;100.00
21273;BME280;36726;52.328;10.552;2023-01-30T13:55:31;99817.06;;;5.68;100.00
21273;BME280;36726;52.328;10.552;2023-01-30T13:58:13;99824.94;;;5.68;100.00
21273;BME280;36726;52.328;10.552;2023-01-30T14:00:53;99818.13;;;5.76;100.00
21273;BME280;36726;52.328;10.552;2023-01-30T14:10:55;99827.97;;;5.86;100.00
21273;BME280;36726;52.328;10.552;2023-01-30T14:13:24;99842.16;;;5.94;100.00
21273;BME280;36726;52.328;10.552;2023-01-30T14:15:54;99826.41;;;5.95;100.00
21273;BME280;36726;52.328;10.552;2023-01-30T14:18:26;99839.16;;;5.79;100.00
21273;BME280;36726;52.328;10.552;2023-01-30T14:21:12;99850.44;;;5.75;100.00
21273;BME280;36726;52.328;10.552;2023-01-30T14:23:40;99870.41;;;5.67;100.00
21273;BME280;36726;52.328;10.552;2023-01-30T14:26:08;99865.78;;;5.55;100.00
21273;BME280;36726;52.328;10.552;2023-01-30T14:28:44;99888.97;;;5.36;100.00
21273;BME280;36726;52.328;10.552;2023-01-30T14:31:11;99913.81;;;5.15;100.00
21273;BME280;36726;52.328;10.552;2023-01-30T14:33:58;99935.28;;;4.99;100.00
21273;BME280;36726;52.328;10.552;2023-01-30T14:42:18;99944.06;;;5.01;100.00
21273;BME280;36726;52.328;10.552;2023-01-30T14:45:03;99939.75;;;5.03;100.00
21273;BME280;36726;52.328;10.552;2023-01-30T14:47:33;99942.41;;;5.05;100.00
21273;BME280;36726;52.328;10.552;2023-01-30T14:50:21;99944.88;;;5.00;100.00
21273;BME280;36726;52.328;10.552;2023-01-30T14:52:49;99955.38;;;5.00;100.00